Time,TemperatureF,DewpointF,PressureIn,WindDirection,WindDirectionDegrees,WindSpeedMPH,WindSpeedGustMPH,Humidity,HourlyPrecipIn,Conditions,Clouds,dailyrainin,SoftwareType,DateUTC
2013-01-14 00:03:00,58.1,57.0,29.96,NNW,335,0.0,1.0,96,0.17,,,0.32,VWS V14.01,2013-01-14 05:03:00,
2013-01-14 00:04:00,58.1,57.0,29.96,NNW,335,0.0,1.0,96,0.16,,,0.01,VWS V14.01,2013-01-14 05:04:00,
2013-01-14 00:05:00,58.1,57.0,29.96,NNW,335,1.0,1.0,96,0.16,,,0.01,VWS V14.01,2013-01-14 05:05:00,
2013-01-14 00:10:00,58.1,57.0,29.96,NNW,335,0.0,1.0,96,0.13,,,0.01,VWS V14.01,2013-01-14 05:10:00,
2013-01-14 00:15:00,58.1,57.0,29.96,South,188,0.0,1.0,96,0.10,,,0.01,VWS V14.01,2013-01-14 05:15:00,
2013-01-14 00:20:00,58.3,57.2,29.95,South,188,0.0,1.0,96,0.09,,,0.01,VWS V14.01,2013-01-14 05:20:00,
2013-01-14 00:25:00,58.3,57.2,29.95,WSW,250,0.0,1.0,96,0.07,,,0.01,VWS V14.01,2013-01-14 05:25:00,
2013-01-14 00:30:00,59.0,57.9,29.95,WSW,250,0.0,1.0,96,0.05,,,0.01,VWS V14.01,2013-01-14 05:30:00,
2013-01-14 00:36:00,59.0,57.9,29.95,WSW,250,0.0,1.0,96,0.04,,,0.01,VWS V14.01,2013-01-14 05:36:00,
2013-01-14 00:41:00,58.7,57.6,29.95,WSW,250,0.0,1.0,96,0.04,,,0.01,VWS V14.01,2013-01-14 05:41:00,
2013-01-14 00:46:00,58.6,57.5,29.95,WSW,250,0.0,1.0,96,0.04,,,0.02,VWS V14.01,2013-01-14 05:46:00,
2013-01-14 00:51:00,58.6,57.5,29.95,WSW,250,0.0,1.0,96,0.03,,,0.02,VWS V14.01,2013-01-14 05:51:00,
2013-01-14 00:56:00,58.4,57.3,29.95,WSW,250,0.0,1.0,96,0.03,,,0.02,VWS V14.01,2013-01-14 05:56:00,
2013-01-14 01:01:00,58.4,57.3,29.95,WSW,250,0.0,1.0,96,0.02,,,0.02,VWS V14.01,2013-01-14 06:01:00,
2013-01-14 01:06:00,58.4,57.3,29.94,WSW,250,0.0,1.0,96,0.02,,,0.02,VWS V14.01,2013-01-14 06:06:00,
2013-01-14 01:11:00,58.4,57.3,29.94,WSW,250,0.0,1.0,96,0.02,,,0.03,VWS V14.01,2013-01-14 06:11:00,
2013-01-14 01:17:00,58.3,57.2,29.94,WSW,250,0.0,1.0,96,0.02,,,0.03,VWS V14.01,2013-01-14 06:17:00,
2013-01-14 01:22:00,58.3,57.2,29.93,WSW,250,0.0,1.0,96,0.03,,,0.04,VWS V14.01,2013-01-14 06:22:00,
2013-01-14 01:27:00,58.3,57.2,29.93,WSW,250,0.0,1.0,96,0.03,,,0.04,VWS V14.01,2013-01-14 06:27:00,
2013-01-14 01:32:00,58.3,57.2,29.93,SW,234,2.0,2.0,96,0.03,,,0.04,VWS V14.01,2013-01-14 06:32:00,
2013-01-14 01:37:00,58.3,57.2,29.93,SW,234,1.0,1.0,96,0.04,,,0.05,VWS V14.01,2013-01-14 06:37:00,
2013-01-14 01:42:00,58.3,57.2,29.93,ESE,102,2.0,2.0,96,0.05,,,0.06,VWS V14.01,2013-01-14 06:42:00,
2013-01-14 01:47:00,58.3,57.5,29.94,ESE,102,0.0,1.0,97,0.04,,,0.06,VWS V14.01,2013-01-14 06:47:00,
2013-01-14 01:52:00,58.3,57.5,29.94,WSW,248,1.0,1.0,97,0.04,,,0.06,VWS V14.01,2013-01-14 06:52:00,
2013-01-14 01:57:00,58.4,57.6,29.94,SW,236,0.0,1.0,97,0.05,,,0.07,VWS V14.01,2013-01-14 06:57:00,
2013-01-14 02:02:00,58.4,57.6,29.94,West,259,0.0,1.0,97,0.05,,,0.07,VWS V14.01,2013-01-14 07:02:00,
2013-01-14 02:07:00,58.4,57.6,29.94,West,259,1.0,1.0,97,0.05,,,0.07,VWS V14.01,2013-01-14 07:07:00,
2013-01-14 02:13:00,58.4,57.6,29.94,West,259,0.0,1.0,97,0.05,,,0.08,VWS V14.01,2013-01-14 07:13:00,
2013-01-14 02:18:00,58.4,57.6,29.94,West,259,0.0,1.0,97,0.05,,,0.08,VWS V14.01,2013-01-14 07:18:00,
2013-01-14 02:23:00,58.3,57.5,29.94,SE,128,1.0,1.0,97,0.05,,,0.08,VWS V14.01,2013-01-14 07:23:00,
2013-01-14 02:28:00,58.3,57.5,29.94,SE,130,0.0,1.0,97,0.04,,,0.08,VWS V14.01,2013-01-14 07:28:00,
2013-01-14 02:33:00,58.3,57.5,29.94,SE,130,0.0,1.0,97,0.04,,,0.08,VWS V14.01,2013-01-14 07:33:00,
2013-01-14 02:38:00,58.3,57.5,29.94,SE,130,0.0,1.0,97,0.03,,,0.08,VWS V14.01,2013-01-14 07:38:00,
2013-01-14 02:43:00,58.3,57.5,29.94,SE,130,0.0,1.0,97,0.03,,,0.08,VWS V14.01,2013-01-14 07:43:00,
2013-01-14 02:48:00,58.1,57.3,29.94,SE,130,0.0,1.0,97,0.02,,,0.08,VWS V14.01,2013-01-14 07:48:00,
2013-01-14 02:53:00,58.3,57.5,29.94,East,90,0.0,1.0,97,0.02,,,0.08,VWS V14.01,2013-01-14 07:53:00,
2013-01-14 02:58:00,58.3,57.5,29.94,NNE,13,0.0,1.0,97,0.01,,,0.08,VWS V14.01,2013-01-14 07:58:00,
2013-01-14 03:03:00,58.3,57.5,29.94,SE,146,2.0,2.0,97,0.02,,,0.09,VWS V14.01,2013-01-14 08:03:00,
2013-01-14 03:09:00,58.3,57.5,29.94,ENE,61,0.0,1.0,97,0.02,,,0.09,VWS V14.01,2013-01-14 08:09:00,
2013-01-14 03:14:00,58.4,57.6,29.94,SSE,148,0.0,1.0,97,0.01,,,0.09,VWS V14.01,2013-01-14 08:14:00,
2013-01-14 03:19:00,58.4,57.6,29.93,WNW,284,2.0,2.0,97,0.01,,,0.09,VWS V14.01,2013-01-14 08:19:00,
2013-01-14 03:24:00,58.3,57.5,29.93,WNW,284,0.0,1.0,97,0.01,,,0.09,VWS V14.01,2013-01-14 08:24:00,
2013-01-14 03:29:00,58.3,57.5,29.93,WNW,284,0.0,1.0,97,0.01,,,0.09,VWS V14.01,2013-01-14 08:29:00,
2013-01-14 03:34:00,58.3,57.5,29.94,West,277,0.0,1.0,97,0.01,,,0.09,VWS V14.01,2013-01-14 08:34:00,
2013-01-14 03:39:00,58.3,57.5,29.94,West,277,0.0,1.0,97,0.02,,,0.10,VWS V14.01,2013-01-14 08:39:00,
2013-01-14 03:44:00,58.3,57.5,29.94,West,277,0.0,1.0,97,0.02,,,0.10,VWS V14.01,2013-01-14 08:44:00,
2013-01-14 03:50:00,58.3,57.5,29.94,West,277,0.0,1.0,97,0.03,,,0.11,VWS V14.01,2013-01-14 08:50:00,
2013-01-14 03:55:00,58.3,57.5,29.94,West,277,0.0,1.0,97,0.03,,,0.11,VWS V14.01,2013-01-14 08:55:00,
2013-01-14 04:00:00,58.1,57.3,29.94,West,277,0.0,1.0,97,0.03,,,0.11,VWS V14.01,2013-01-14 09:00:00,
2013-01-14 04:05:00,58.0,57.2,29.94,West,277,0.0,1.0,97,0.03,,,0.12,VWS V14.01,2013-01-14 09:05:00,
2013-01-14 04:10:00,58.1,57.3,29.94,West,277,0.0,1.0,97,0.03,,,0.12,VWS V14.01,2013-01-14 09:10:00,
2013-01-14 04:15:00,58.0,57.2,29.94,West,277,0.0,1.0,97,0.03,,,0.12,VWS V14.01,2013-01-14 09:15:00,
2013-01-14 04:20:00,58.0,57.2,29.94,West,277,0.0,1.0,97,0.04,,,0.13,VWS V14.01,2013-01-14 09:20:00,
2013-01-14 04:25:00,58.0,57.2,29.94,West,277,0.0,1.0,97,0.04,,,0.13,VWS V14.01,2013-01-14 09:25:00,
2013-01-14 04:30:00,58.0,57.2,29.94,West,277,0.0,1.0,97,0.05,,,0.14,VWS V14.01,2013-01-14 09:30:00,
2013-01-14 04:35:00,58.0,57.2,29.94,West,277,0.0,1.0,97,0.06,,,0.15,VWS V14.01,2013-01-14 09:35:00,
2013-01-14 04:40:00,58.0,57.2,29.94,West,277,0.0,1.0,97,0.05,,,0.15,VWS V14.01,2013-01-14 09:40:00,
2013-01-14 04:46:00,57.5,56.7,29.94,NNW,343,2.0,2.0,97,0.05,,,0.15,VWS V14.01,2013-01-14 09:46:00,
2013-01-14 04:51:00,56.6,55.5,29.94,North,360,6.0,6.0,96,0.04,,,0.15,VWS V14.01,2013-01-14 09:51:00,
2013-01-14 04:56:00,56.2,55.1,29.94,North,360,3.0,3.0,96,0.05,,,0.16,VWS V14.01,2013-01-14 09:56:00,
2013-01-14 05:01:00,55.6,54.5,29.94,NNE,26,0.0,1.0,96,0.05,,,0.16,VWS V14.01,2013-01-14 10:01:00,
2013-01-14 05:06:00,55.0,53.9,29.95,WNW,296,2.0,2.0,96,0.04,,,0.16,VWS V14.01,2013-01-14 10:06:00,
2013-01-14 05:11:00,54.5,53.4,29.95,North,5,0.0,1.0,96,0.06,,,0.18,VWS V14.01,2013-01-14 10:11:00,
2013-01-14 05:16:00,54.2,53.1,29.95,NE,51,3.0,3.0,96,0.06,,,0.18,VWS V14.01,2013-01-14 10:16:00,
2013-01-14 05:21:00,53.9,52.8,29.96,West,265,2.0,2.0,96,0.05,,,0.18,VWS V14.01,2013-01-14 10:21:00,
2013-01-14 05:26:00,53.8,52.7,29.96,NW,306,1.0,1.0,96,0.06,,,0.19,VWS V14.01,2013-01-14 10:26:00,
2013-01-14 05:31:00,53.5,52.4,29.96,North,360,1.0,1.0,96,0.06,,,0.19,VWS V14.01,2013-01-14 10:31:00,
2013-01-14 05:37:00,53.1,52.0,29.98,NNW,330,3.0,3.0,96,0.06,,,0.20,VWS V14.01,2013-01-14 10:37:00,
2013-01-14 05:42:00,52.8,51.7,29.98,NW,312,2.0,2.0,96,0.06,,,0.21,VWS V14.01,2013-01-14 10:42:00,
2013-01-14 05:47:00,52.3,51.2,29.98,NNW,342,7.0,7.0,96,0.07,,,0.22,VWS V14.01,2013-01-14 10:47:00,
2013-01-14 05:52:00,52.0,50.9,29.98,North,355,8.0,8.0,96,0.08,,,0.23,VWS V14.01,2013-01-14 10:52:00,
2013-01-14 05:57:00,51.6,50.5,29.98,North,355,5.0,5.0,96,0.08,,,0.23,VWS V14.01,2013-01-14 10:57:00,
2013-01-14 06:02:00,51.4,50.3,29.99,North,360,7.0,7.0,96,0.07,,,0.23,VWS V14.01,2013-01-14 11:02:00,
2013-01-14 06:07:00,51.0,49.9,29.99,WNW,297,4.0,4.0,96,0.07,,,0.23,VWS V14.01,2013-01-14 11:07:00,
2013-01-14 06:12:00,50.8,49.7,29.99,North,360,9.0,9.0,96,0.06,,,0.23,VWS V14.01,2013-01-14 11:12:00,
2013-01-14 06:17:00,50.5,49.4,30.00,NNW,343,6.0,6.0,96,0.05,,,0.23,VWS V14.01,2013-01-14 11:17:00,
2013-01-14 06:22:00,50.4,49.3,30.00,NW,314,5.0,5.0,96,0.05,,,0.23,VWS V14.01,2013-01-14 11:22:00,
2013-01-14 06:27:00,49.4,48.3,30.00,NNW,335,7.0,7.0,96,0.06,,,0.24,VWS V14.01,2013-01-14 11:27:00,
2013-01-14 06:32:00,48.0,46.6,30.02,North,355,11.0,11.0,95,0.05,,,0.24,VWS V14.01,2013-01-14 11:32:00,
2013-01-14 06:38:00,47.3,46.2,30.02,North,360,3.0,3.0,96,0.04,,,0.24,VWS V14.01,2013-01-14 11:38:00,
2013-01-14 06:43:00,46.5,45.2,30.02,North,355,10.0,10.0,95,0.04,,,0.25,VWS V14.01,2013-01-14 11:43:00,
2013-01-14 06:48:00,46.0,44.9,30.03,North,355,16.0,16.0,96,0.04,,,0.25,VWS V14.01,2013-01-14 11:48:00,
2013-01-14 06:53:00,45.7,44.6,30.03,NNW,346,11.0,11.0,96,0.03,,,0.25,VWS V14.01,2013-01-14 11:53:00,
2013-01-14 06:58:00,45.4,44.3,30.03,NNW,338,13.0,13.0,96,0.03,,,0.26,VWS V14.01,2013-01-14 11:58:00,
2013-01-14 07:03:00,45.1,44.0,30.03,NNW,338,10.0,10.0,96,0.03,,,0.26,VWS V14.01,2013-01-14 12:03:00,
2013-01-14 07:08:00,44.6,43.5,30.03,North,350,13.0,13.0,96,0.03,,,0.26,VWS V14.01,2013-01-14 12:08:00,
2013-01-14 07:13:00,44.3,43.2,30.03,North,355,9.0,9.0,96,0.03,,,0.26,VWS V14.01,2013-01-14 12:13:00,
2013-01-14 07:18:00,44.2,43.1,30.06,North,360,12.0,12.0,96,0.03,,,0.26,VWS V14.01,2013-01-14 12:18:00,
2013-01-14 07:23:00,44.2,43.1,30.06,NNW,344,14.0,14.0,96,0.03,,,0.26,VWS V14.01,2013-01-14 12:23:00,
2013-01-14 07:28:00,44.1,43.0,30.06,NNW,336,9.0,9.0,96,0.07,,,0.31,VWS V14.01,2013-01-14 12:28:00,
2013-01-14 07:33:00,43.9,42.8,30.06,NE,42,14.0,14.0,96,0.10,,,0.34,VWS V14.01,2013-01-14 12:33:00,
2013-01-14 07:39:00,43.8,42.5,30.06,North,5,11.0,11.0,95,0.10,,,0.34,VWS V14.01,2013-01-14 12:39:00,
2013-01-14 07:44:00,43.8,42.7,30.06,North,355,7.0,7.0,96,0.09,,,0.34,VWS V14.01,2013-01-14 12:44:00,
2013-01-14 07:49:00,43.6,42.5,30.06,North,9,12.0,12.0,96,0.09,,,0.34,VWS V14.01,2013-01-14 12:49:00,
2013-01-14 07:54:00,43.5,42.4,30.06,NNW,331,2.0,2.0,96,0.09,,,0.34,VWS V14.01,2013-01-14 12:54:00,
2013-01-14 07:59:00,43.3,42.2,30.06,North,360,6.0,6.0,96,0.08,,,0.34,VWS V14.01,2013-01-14 12:59:00,
2013-01-14 08:04:00,43.3,42.2,30.08,NNW,343,4.0,4.0,96,0.08,,,0.34,VWS V14.01,2013-01-14 13:04:00,
2013-01-14 08:09:00,43.3,42.2,30.08,North,10,6.0,6.0,96,0.08,,,0.34,VWS V14.01,2013-01-14 13:09:00,
2013-01-14 08:14:00,43.3,42.2,30.08,NE,49,4.0,4.0,96,0.08,,,0.34,VWS V14.01,2013-01-14 13:14:00,
2013-01-14 08:19:00,43.3,42.2,30.09,North,355,2.0,2.0,96,0.08,,,0.34,VWS V14.01,2013-01-14 13:19:00,
2013-01-14 08:24:00,43.3,42.2,30.09,NE,48,2.0,2.0,96,0.08,,,0.34,VWS V14.01,2013-01-14 13:24:00,
2013-01-14 08:29:00,43.3,42.2,30.09,NNW,334,2.0,2.0,96,0.04,,,0.34,VWS V14.01,2013-01-14 13:29:00,
2013-01-14 08:34:00,43.3,42.2,30.10,NW,306,1.0,1.0,96,0.01,,,0.34,VWS V14.01,2013-01-14 13:34:00,
2013-01-14 08:39:00,43.3,42.2,30.10,NNW,343,4.0,4.0,96,0.01,,,0.35,VWS V14.01,2013-01-14 13:39:00,
2013-01-14 08:45:00,43.3,42.2,30.10,NNW,332,3.0,3.0,96,0.01,,,0.35,VWS V14.01,2013-01-14 13:45:00,
2013-01-14 08:50:00,43.2,42.1,30.10,NNE,31,0.0,1.0,96,0.01,,,0.35,VWS V14.01,2013-01-14 13:50:00,
2013-01-14 08:55:00,43.2,42.1,30.10,North,350,5.0,5.0,96,0.01,,,0.35,VWS V14.01,2013-01-14 13:55:00,
2013-01-14 09:00:00,43.2,42.1,30.10,NNE,20,3.0,3.0,96,0.01,,,0.35,VWS V14.01,2013-01-14 14:00:00,
2013-01-14 09:05:00,43.3,42.2,30.11,East,93,1.0,1.0,96,0.01,,,0.35,VWS V14.01,2013-01-14 14:05:00,
2013-01-14 09:10:00,43.3,42.2,30.11,NW,323,5.0,5.0,96,0.01,,,0.35,VWS V14.01,2013-01-14 14:10:00,
2013-01-14 09:15:00,43.3,42.2,30.11,NNW,348,5.0,5.0,96,0.01,,,0.35,VWS V14.01,2013-01-14 14:15:00,
2013-01-14 09:20:00,43.3,42.2,30.12,West,271,0.0,1.0,96,0.01,,,0.35,VWS V14.01,2013-01-14 14:20:00,
2013-01-14 09:25:00,43.3,42.2,30.12,NNW,342,3.0,3.0,96,0.01,,,0.35,VWS V14.01,2013-01-14 14:25:00,
2013-01-14 09:30:00,43.3,42.2,30.12,NNW,342,0.0,1.0,96,0.02,,,0.36,VWS V14.01,2013-01-14 14:30:00,
2013-01-14 09:35:00,43.5,42.4,30.12,North,355,3.0,3.0,96,0.02,,,0.36,VWS V14.01,2013-01-14 14:35:00,
2013-01-14 09:40:00,43.5,42.4,30.12,East,101,0.0,1.0,96,0.01,,,0.36,VWS V14.01,2013-01-14 14:40:00,
2013-01-14 09:45:00,43.6,42.5,30.12,NNW,344,1.0,1.0,96,0.01,,,0.36,VWS V14.01,2013-01-14 14:45:00,
2013-01-14 09:51:00,43.8,42.7,30.11,NNW,338,1.0,1.0,96,0.01,,,0.36,VWS V14.01,2013-01-14 14:51:00,
2013-01-14 09:56:00,43.6,42.5,30.11,NNW,340,3.0,3.0,96,0.01,,,0.36,VWS V14.01,2013-01-14 14:56:00,
2013-01-14 10:01:00,43.5,42.4,30.11,West,278,2.0,2.0,96,0.01,,,0.36,VWS V14.01,2013-01-14 15:01:00,
2013-01-14 10:06:00,43.5,42.4,30.13,NNW,343,3.0,3.0,96,0.01,,,0.36,VWS V14.01,2013-01-14 15:06:00,
2013-01-14 10:11:00,43.5,42.4,30.13,NNW,336,2.0,2.0,96,0.02,,,0.37,VWS V14.01,2013-01-14 15:11:00,
2013-01-14 10:16:00,43.5,42.4,30.13,NE,52,1.0,1.0,96,0.02,,,0.37,VWS V14.01,2013-01-14 15:16:00,
2013-01-14 10:21:00,43.5,42.4,30.14,NE,36,2.0,2.0,96,0.04,,,0.39,VWS V14.01,2013-01-14 15:21:00,
2013-01-14 10:27:00,43.5,42.4,30.14,NNW,348,1.0,1.0,96,0.09,,,0.44,VWS V14.01,2013-01-14 15:27:00,
2013-01-14 10:32:00,43.3,42.2,30.14,NW,304,1.0,1.0,96,0.09,,,0.45,VWS V14.01,2013-01-14 15:32:00,
2013-01-14 10:37:00,43.2,42.1,30.14,North,349,1.0,1.0,96,0.10,,,0.46,VWS V14.01,2013-01-14 15:37:00,
2013-01-14 10:42:00,43.2,42.1,30.14,NE,43,1.0,1.0,96,0.11,,,0.47,VWS V14.01,2013-01-14 15:42:00,
2013-01-14 10:47:00,43.2,42.1,30.13,NE,44,0.0,1.0,96,0.12,,,0.48,VWS V14.01,2013-01-14 15:47:00,
2013-01-14 10:53:00,43.2,42.1,30.13,NE,51,2.0,2.0,96,0.12,,,0.48,VWS V14.01,2013-01-14 15:53:00,
2013-01-14 10:58:00,43.3,42.2,30.13,NE,36,0.0,1.0,96,0.13,,,0.49,VWS V14.01,2013-01-14 15:58:00,
2013-01-14 11:03:00,43.3,42.2,30.13,North,10,0.0,1.0,96,0.13,,,0.49,VWS V14.01,2013-01-14 16:03:00,
2013-01-14 11:08:00,43.3,42.2,30.13,NNE,13,0.0,1.0,96,0.14,,,0.50,VWS V14.01,2013-01-14 16:08:00,
2013-01-14 11:13:00,43.3,42.2,30.13,NNE,13,0.0,1.0,96,0.16,,,0.52,VWS V14.01,2013-01-14 16:13:00,
2013-01-14 11:18:00,43.3,42.2,30.12,NNE,14,0.0,1.0,96,0.16,,,0.53,VWS V14.01,2013-01-14 16:18:00,
2013-01-14 11:23:00,43.2,42.1,30.12,NNW,342,0.0,1.0,96,0.16,,,0.56,VWS V14.01,2013-01-14 16:23:00,
2013-01-14 11:28:00,43.3,42.2,30.12,NNW,342,0.0,1.0,96,0.13,,,0.57,VWS V14.01,2013-01-14 16:28:00,
2013-01-14 11:33:00,43.5,42.4,30.09,North,11,0.0,1.0,96,0.12,,,0.57,VWS V14.01,2013-01-14 16:33:00,
2013-01-14 11:39:00,43.8,42.7,30.09,North,11,2.0,2.0,96,0.12,,,0.58,VWS V14.01,2013-01-14 16:39:00,
2013-01-14 11:44:00,44.1,43.3,30.09,NNE,26,0.0,1.0,97,0.11,,,0.58,VWS V14.01,2013-01-14 16:44:00,
2013-01-14 11:49:00,44.1,43.0,30.09,ENE,70,0.0,1.0,96,0.10,,,0.58,VWS V14.01,2013-01-14 16:49:00,
2013-01-14 11:54:00,44.1,43.0,30.09,NW,313,1.0,1.0,96,0.10,,,0.58,VWS V14.01,2013-01-14 16:54:00,
2013-01-14 11:59:00,44.1,43.3,30.09,NW,314,0.0,1.0,97,0.09,,,0.58,VWS V14.01,2013-01-14 16:59:00,
2013-01-14 12:04:00,44.3,43.5,30.08,East,86,1.0,1.0,97,0.09,,,0.58,VWS V14.01,2013-01-14 17:04:00,
2013-01-14 12:09:00,44.3,43.2,30.08,East,86,1.0,1.0,96,0.08,,,0.58,VWS V14.01,2013-01-14 17:09:00,
2013-01-14 12:14:00,44.3,43.2,30.08,NNW,342,1.0,1.0,96,0.06,,,0.58,VWS V14.01,2013-01-14 17:14:00,
2013-01-14 12:19:00,44.3,43.2,30.08,NNW,342,0.0,1.0,96,0.05,,,0.58,VWS V14.01,2013-01-14 17:19:00,
2013-01-14 12:25:00,44.2,43.1,30.08,North,5,0.0,1.0,96,0.03,,,0.58,VWS V14.01,2013-01-14 17:25:00,
2013-01-14 12:30:00,44.3,43.2,30.08,North,5,1.0,1.0,96,0.02,,,0.59,VWS V14.01,2013-01-14 17:30:00,
2013-01-14 12:35:00,44.2,43.1,30.08,North,5,1.0,1.0,96,0.02,,,0.59,VWS V14.01,2013-01-14 17:35:00,
2013-01-14 12:40:00,44.2,43.1,30.08,North,5,0.0,1.0,96,0.02,,,0.60,VWS V14.01,2013-01-14 17:40:00,
2013-01-14 12:45:00,44.2,43.1,30.08,North,5,0.0,1.0,96,0.02,,,0.60,VWS V14.01,2013-01-14 17:45:00,
2013-01-14 12:50:00,44.2,43.1,30.04,East,86,0.0,1.0,96,0.03,,,0.61,VWS V14.01,2013-01-14 17:50:00,
2013-01-14 12:55:00,44.2,43.1,30.04,North,360,0.0,1.0,96,0.03,,,0.61,VWS V14.01,2013-01-14 17:55:00,
2013-01-14 13:00:00,44.2,43.1,30.04,NNW,347,1.0,1.0,96,0.03,,,0.61,VWS V14.01,2013-01-14 18:00:00,
2013-01-14 13:05:00,44.1,43.0,30.04,NE,43,0.0,1.0,96,0.04,,,0.62,VWS V14.01,2013-01-14 18:05:00,
2013-01-14 13:10:00,44.1,43.0,30.04,NE,46,1.0,1.0,96,0.04,,,0.62,VWS V14.01,2013-01-14 18:10:00,
2013-01-14 13:15:00,44.2,43.1,30.04,NNE,24,1.0,1.0,96,0.04,,,0.62,VWS V14.01,2013-01-14 18:15:00,
2013-01-14 13:21:00,44.1,43.0,30.05,NW,325,0.0,1.0,96,0.04,,,0.62,VWS V14.01,2013-01-14 18:21:00,
2013-01-14 13:26:00,44.2,43.1,30.05,West,261,1.0,1.0,96,0.04,,,0.62,VWS V14.01,2013-01-14 18:26:00,
2013-01-14 13:31:00,44.3,43.2,30.05,West,261,2.0,2.0,96,0.03,,,0.62,VWS V14.01,2013-01-14 18:31:00,
2013-01-14 13:36:00,44.3,43.2,30.04,NNW,336,0.0,1.0,96,0.03,,,0.62,VWS V14.01,2013-01-14 18:36:00,
2013-01-14 13:41:00,44.6,43.8,30.04,NNW,336,0.0,1.0,97,0.02,,,0.62,VWS V14.01,2013-01-14 18:41:00,
2013-01-14 13:46:00,44.5,43.4,30.04,NNW,336,4.0,4.0,96,0.02,,,0.62,VWS V14.01,2013-01-14 18:46:00,
2013-01-14 13:52:00,44.3,43.2,30.05,East,100,2.0,2.0,96,0.02,,,0.62,VWS V14.01,2013-01-14 18:52:00,
2013-01-14 13:57:00,44.2,43.1,30.05,East,96,1.0,1.0,96,0.01,,,0.62,VWS V14.01,2013-01-14 18:57:00,
2013-01-14 14:02:00,44.1,43.0,30.05,East,96,0.0,1.0,96,0.01,,,0.62,VWS V14.01,2013-01-14 19:02:00,
2013-01-14 14:07:00,44.1,43.0,30.06,East,96,0.0,1.0,96,0.01,,,0.62,VWS V14.01,2013-01-14 19:07:00,
2013-01-14 14:12:00,44.2,43.1,30.06,East,96,0.0,1.0,96,0.01,,,0.63,VWS V14.01,2013-01-14 19:12:00,
2013-01-14 14:17:00,44.3,43.2,30.03,East,96,1.0,1.0,96,0.01,,,0.63,VWS V14.01,2013-01-14 19:17:00,
2013-01-14 14:24:00,44.5,43.4,30.03,NNW,334,2.0,2.0,96,0.02,,,0.64,VWS V14.01,2013-01-14 19:24:00,
2013-01-14 14:29:00,44.5,43.7,30.03,NNW,337,3.0,3.0,97,0.02,,,0.64,VWS V14.01,2013-01-14 19:29:00,
2013-01-14 14:35:00,44.3,43.2,30.05,NE,44,1.0,1.0,96,0.03,,,0.65,VWS V14.01,2013-01-14 19:35:00,
2013-01-14 14:40:00,44.2,43.4,30.05,NE,44,0.0,1.0,97,0.04,,,0.66,VWS V14.01,2013-01-14 19:40:00,
2013-01-14 14:45:00,44.2,43.4,30.05,NE,44,0.0,1.0,97,0.05,,,0.67,VWS V14.01,2013-01-14 19:45:00,
2013-01-14 14:50:00,44.3,43.5,30.04,NNE,13,0.0,1.0,97,0.06,,,0.68,VWS V14.01,2013-01-14 19:50:00,
2013-01-14 14:55:00,44.3,43.5,30.04,NNE,13,0.0,1.0,97,0.06,,,0.68,VWS V14.01,2013-01-14 19:55:00,
2013-01-14 15:00:00,44.3,43.5,30.04,NNE,13,0.0,1.0,97,0.07,,,0.69,VWS V14.01,2013-01-14 20:00:00,
2013-01-14 15:05:00,44.5,43.7,30.04,NNE,13,0.0,1.0,97,0.08,,,0.70,VWS V14.01,2013-01-14 20:05:00,
2013-01-14 15:10:00,44.5,43.7,30.04,NNE,13,0.0,1.0,97,0.08,,,0.71,VWS V14.01,2013-01-14 20:10:00,
2013-01-14 15:16:00,44.6,43.8,30.04,NNE,13,0.0,1.0,97,0.09,,,0.72,VWS V14.01,2013-01-14 20:16:00,
2013-01-14 15:21:00,44.5,43.7,30.05,NNE,33,0.0,1.0,97,0.10,,,0.73,VWS V14.01,2013-01-14 20:21:00,
2013-01-14 15:26:00,44.5,43.7,30.05,NNE,26,0.0,1.0,97,0.10,,,0.74,VWS V14.01,2013-01-14 20:26:00,
2013-01-14 15:31:00,44.5,43.7,30.05,NNW,342,0.0,1.0,97,0.11,,,0.75,VWS V14.01,2013-01-14 20:31:00,
2013-01-14 15:36:00,44.5,43.7,30.02,NNW,342,1.0,1.0,97,0.11,,,0.76,VWS V14.01,2013-01-14 20:36:00,
2013-01-14 15:41:00,44.6,43.8,30.02,NNW,344,4.0,4.0,97,0.10,,,0.76,VWS V14.01,2013-01-14 20:41:00,
2013-01-14 15:46:00,44.6,43.8,30.02,NNW,337,1.0,1.0,97,0.10,,,0.77,VWS V14.01,2013-01-14 20:46:00,
2013-01-14 15:51:00,44.6,43.8,30.03,NNW,337,0.0,1.0,97,0.10,,,0.77,VWS V14.01,2013-01-14 20:51:00,
2013-01-14 15:56:00,44.6,43.8,30.03,NNW,337,0.0,1.0,97,0.10,,,0.78,VWS V14.01,2013-01-14 20:56:00,
2013-01-14 16:01:00,44.6,43.8,30.03,NNW,337,0.0,1.0,97,0.09,,,0.78,VWS V14.01,2013-01-14 21:01:00,
2013-01-14 16:06:00,44.6,43.8,30.05,NNW,337,1.0,1.0,97,0.10,,,0.79,VWS V14.01,2013-01-14 21:06:00,
2013-01-14 16:11:00,44.8,44.0,30.05,NNW,337,0.0,1.0,97,0.09,,,0.79,VWS V14.01,2013-01-14 21:11:00,
2013-01-14 16:16:00,44.9,44.1,30.05,NNW,337,1.0,1.0,97,0.08,,,0.79,VWS V14.01,2013-01-14 21:16:00,
2013-01-14 16:21:00,44.9,44.1,30.06,NNW,337,1.0,1.0,97,0.07,,,0.79,VWS V14.01,2013-01-14 21:21:00,
2013-01-14 16:27:00,44.9,44.1,30.06,NNW,337,2.0,2.0,97,0.07,,,0.80,VWS V14.01,2013-01-14 21:27:00,
2013-01-14 16:32:00,44.8,44.0,30.06,NNW,337,3.0,3.0,97,0.05,,,0.80,VWS V14.01,2013-01-14 21:32:00,
2013-01-14 16:37:00,44.6,43.8,30.07,NW,316,0.0,1.0,97,0.05,,,0.80,VWS V14.01,2013-01-14 21:37:00,
2013-01-14 16:42:00,44.5,43.7,30.07,North,5,1.0,1.0,97,0.04,,,0.80,VWS V14.01,2013-01-14 21:42:00,
2013-01-14 16:47:00,44.3,43.5,30.07,North,9,0.0,1.0,97,0.04,,,0.80,VWS V14.01,2013-01-14 21:47:00,
2013-01-14 16:52:00,44.2,43.4,30.08,NNW,334,4.0,4.0,97,0.04,,,0.81,VWS V14.01,2013-01-14 21:52:00,
2013-01-14 16:57:00,44.1,43.3,30.08,NNW,338,5.0,5.0,97,0.05,,,0.82,VWS V14.01,2013-01-14 21:57:00,
2013-01-14 17:02:00,43.8,43.0,30.09,North,350,7.0,7.0,97,0.04,,,0.82,VWS V14.01,2013-01-14 22:02:00,
2013-01-14 17:07:00,43.6,42.8,30.09,NNW,339,4.0,4.0,97,0.05,,,0.83,VWS V14.01,2013-01-14 22:07:00,
2013-01-14 17:12:00,43.5,42.7,30.09,NNE,30,3.0,3.0,97,0.04,,,0.83,VWS V14.01,2013-01-14 22:12:00,
2013-01-14 17:17:00,43.6,42.8,30.11,NNW,328,4.0,4.0,97,0.05,,,0.84,VWS V14.01,2013-01-14 22:17:00,
2013-01-14 17:22:00,43.5,42.7,30.11,NNW,333,4.0,4.0,97,0.06,,,0.85,VWS V14.01,2013-01-14 22:22:00,
2013-01-14 17:27:00,43.6,42.8,30.11,NNW,339,6.0,6.0,97,0.08,,,0.88,VWS V14.01,2013-01-14 22:27:00,
2013-01-14 17:33:00,43.5,42.7,30.11,North,355,5.0,5.0,97,0.12,,,0.92,VWS V14.01,2013-01-14 22:33:00,
2013-01-14 17:38:00,43.3,42.5,30.11,North,350,6.0,6.0,97,0.15,,,0.95,VWS V14.01,2013-01-14 22:38:00,
2013-01-14 17:43:00,43.3,42.5,30.11,NE,48,3.0,3.0,97,0.16,,,0.96,VWS V14.01,2013-01-14 22:43:00,
2013-01-14 17:48:00,43.5,42.7,30.13,North,355,14.0,14.0,97,0.18,,,0.98,VWS V14.01,2013-01-14 22:48:00,
2013-01-14 17:53:00,43.3,42.5,30.13,NNW,348,7.0,7.0,97,0.23,,,1.04,VWS V14.01,2013-01-14 22:53:00,
2013-01-14 17:58:00,43.5,42.7,30.13,NW,315,3.0,3.0,97,0.25,,,1.06,VWS V14.01,2013-01-14 22:58:00,
2013-01-14 18:03:00,43.5,42.7,30.12,NNW,342,0.0,1.0,97,0.26,,,1.08,VWS V14.01,2013-01-14 23:03:00,
2013-01-14 18:08:00,43.6,42.8,30.12,NE,42,0.0,1.0,97,0.26,,,1.09,VWS V14.01,2013-01-14 23:08:00,
2013-01-14 18:13:00,43.6,42.8,30.12,NNW,337,6.0,6.0,97,0.27,,,1.10,VWS V14.01,2013-01-14 23:13:00,
2013-01-14 18:18:00,43.5,42.7,30.15,North,355,9.0,9.0,97,0.26,,,1.10,VWS V14.01,2013-01-14 23:18:00,
2013-01-14 18:23:00,43.3,42.5,30.15,North,5,17.0,17.0,97,0.25,,,1.10,VWS V14.01,2013-01-14 23:23:00,
2013-01-14 18:28:00,43.3,42.5,30.15,NNW,329,6.0,6.0,97,0.23,,,1.11,VWS V14.01,2013-01-14 23:28:00,
2013-01-14 18:33:00,43.3,42.5,30.16,North,360,5.0,5.0,97,0.18,,,1.11,VWS V14.01,2013-01-14 23:33:00,
2013-01-14 18:38:00,43.3,42.5,30.16,NW,325,4.0,4.0,97,0.16,,,1.11,VWS V14.01,2013-01-14 23:38:00,
2013-01-14 18:43:00,43.5,42.7,30.16,North,360,4.0,4.0,97,0.16,,,1.12,VWS V14.01,2013-01-14 23:43:00,
2013-01-14 18:49:00,43.5,42.7,30.18,North,349,3.0,3.0,97,0.15,,,1.13,VWS V14.01,2013-01-14 23:49:00,
2013-01-14 18:54:00,43.3,42.5,30.18,NNE,15,2.0,2.0,97,0.09,,,1.13,VWS V14.01,2013-01-14 23:54:00,
2013-01-14 18:59:00,43.3,42.5,30.18,North,5,2.0,2.0,97,0.08,,,1.14,VWS V14.01,2013-01-14 23:59:00,
2013-01-14 19:04:00,43.3,42.5,30.19,North,355,3.0,3.0,97,0.06,,,1.14,VWS V14.01,2013-01-15 00:04:00,
2013-01-14 19:09:00,42.9,42.1,30.19,North,5,3.0,3.0,97,0.06,,,1.15,VWS V14.01,2013-01-15 00:09:00,
2013-01-14 19:14:00,42.8,42.0,30.19,North,5,2.0,2.0,97,0.06,,,1.16,VWS V14.01,2013-01-15 00:14:00,
2013-01-14 19:19:00,42.5,41.7,30.20,NE,45,3.0,3.0,97,0.07,,,1.17,VWS V14.01,2013-01-15 00:19:00,
2013-01-14 19:24:00,42.3,41.5,30.20,NW,304,1.0,1.0,97,0.08,,,1.18,VWS V14.01,2013-01-15 00:24:00,
2013-01-14 19:29:00,42.1,41.3,30.20,ESE,113,2.0,2.0,97,0.08,,,1.19,VWS V14.01,2013-01-15 00:29:00,
2013-01-14 19:34:00,41.9,41.1,30.20,NNE,33,0.0,1.0,97,0.09,,,1.20,VWS V14.01,2013-01-15 00:34:00,
2013-01-14 19:39:00,41.8,41.0,30.20,North,5,1.0,1.0,97,0.09,,,1.20,VWS V14.01,2013-01-15 00:39:00,
2013-01-14 19:44:00,41.2,40.2,30.20,ENE,73,0.0,1.0,96,0.09,,,1.21,VWS V14.01,2013-01-15 00:44:00,
2013-01-14 19:49:00,40.8,39.8,30.20,ENE,58,3.0,3.0,96,0.09,,,1.22,VWS V14.01,2013-01-15 00:49:00,
2013-01-14 19:55:00,40.3,39.2,30.20,NNW,342,9.0,9.0,96,0.10,,,1.23,VWS V14.01,2013-01-15 00:55:00,
2013-01-14 20:00:00,39.9,38.8,30.20,East,101,1.0,1.0,96,0.10,,,1.24,VWS V14.01,2013-01-15 01:00:00,
2013-01-14 20:05:00,39.8,38.8,30.21,ENE,64,5.0,5.0,96,0.10,,,1.24,VWS V14.01,2013-01-15 01:05:00,
2013-01-14 20:10:00,39.6,38.6,30.21,North,355,3.0,3.0,96,0.10,,,1.25,VWS V14.01,2013-01-15 01:10:00,
2013-01-14 20:15:00,39.5,38.5,30.21,NNW,329,1.0,1.0,96,0.10,,,1.26,VWS V14.01,2013-01-15 01:15:00,
2013-01-14 20:20:00,39.3,38.3,30.21,East,86,1.0,1.0,96,0.11,,,1.28,VWS V14.01,2013-01-15 01:20:00,
2013-01-14 20:25:00,39.3,38.3,30.21,North,355,0.0,1.0,96,0.12,,,1.29,VWS V14.01,2013-01-15 01:25:00,
2013-01-14 20:30:00,39.2,38.2,30.21,North,360,2.0,2.0,96,0.12,,,1.30,VWS V14.01,2013-01-15 01:30:00,
2013-01-14 20:35:00,38.9,37.9,30.23,NNW,334,3.0,3.0,96,0.13,,,1.32,VWS V14.01,2013-01-15 01:35:00,
2013-01-14 20:40:00,38.6,37.6,30.23,NNW,339,4.0,4.0,96,0.13,,,1.33,VWS V14.01,2013-01-15 01:40:00,
2013-01-14 20:45:00,38.3,37.3,30.23,NNW,344,5.0,5.0,96,0.14,,,1.35,VWS V14.01,2013-01-15 01:45:00,
2013-01-14 20:50:00,38.2,37.2,30.25,North,360,4.0,4.0,96,0.13,,,1.35,VWS V14.01,2013-01-15 01:50:00,
2013-01-14 20:55:00,37.8,36.8,30.25,NNW,345,12.0,12.0,96,0.14,,,1.36,VWS V14.01,2013-01-15 01:55:00,
2013-01-14 21:00:00,37.5,36.5,30.25,NNW,346,9.0,9.0,96,0.14,,,1.37,VWS V14.01,2013-01-15 02:00:00,
2013-01-14 21:05:00,37.3,36.3,30.25,North,5,6.0,6.0,96,0.15,,,1.39,VWS V14.01,2013-01-15 02:05:00,
2013-01-14 21:10:00,37.3,36.3,30.25,North,355,9.0,9.0,96,0.15,,,1.40,VWS V14.01,2013-01-15 02:10:00,
2013-01-14 21:15:00,37.2,36.2,30.25,NNW,347,4.0,4.0,96,0.15,,,1.41,VWS V14.01,2013-01-15 02:15:00,
2013-01-14 21:20:00,37.0,36.0,30.23,North,355,9.0,9.0,96,0.15,,,1.42,VWS V14.01,2013-01-15 02:20:00,
2013-01-14 21:26:00,36.9,35.9,30.23,North,5,4.0,4.0,96,0.14,,,1.42,VWS V14.01,2013-01-15 02:26:00,
2013-01-14 21:31:00,36.8,35.8,30.23,SE,146,4.0,4.0,96,0.13,,,1.43,VWS V14.01,2013-01-15 02:31:00,
2013-01-14 21:36:00,36.8,35.8,30.23,NNW,331,7.0,7.0,96,0.12,,,1.43,VWS V14.01,2013-01-15 02:36:00,
2013-01-14 21:41:00,36.8,35.8,30.23,NNW,348,3.0,3.0,96,0.12,,,1.44,VWS V14.01,2013-01-15 02:41:00,
2013-01-14 21:46:00,36.8,35.8,30.23,North,5,1.0,1.0,96,0.11,,,1.45,VWS V14.01,2013-01-15 02:46:00,
2013-01-14 21:51:00,36.9,35.9,30.21,North,5,0.0,1.0,96,0.11,,,1.46,VWS V14.01,2013-01-15 02:51:00,
2013-01-14 21:56:00,37.0,36.0,30.21,North,5,0.0,1.0,96,0.11,,,1.47,VWS V14.01,2013-01-15 02:56:00,
2013-01-14 22:01:00,37.2,36.2,30.21,North,5,0.0,1.0,96,0.11,,,1.48,VWS V14.01,2013-01-15 03:01:00,
2013-01-14 22:06:00,37.3,36.3,30.22,North,5,0.0,1.0,96,0.10,,,1.48,VWS V14.01,2013-01-15 03:06:00,
2013-01-14 22:11:00,37.5,36.5,30.22,North,5,0.0,1.0,96,0.09,,,1.48,VWS V14.01,2013-01-15 03:11:00,
2013-01-14 22:16:00,37.5,36.5,30.22,North,5,0.0,1.0,96,0.07,,,1.48,VWS V14.01,2013-01-15 03:16:00,
2013-01-14 22:21:00,37.5,36.5,30.22,North,5,0.0,1.0,96,0.06,,,1.48,VWS V14.01,2013-01-15 03:21:00,
2013-01-14 22:26:00,37.3,36.3,30.22,North,5,0.0,1.0,96,0.07,,,1.49,VWS V14.01,2013-01-15 03:26:00,
2013-01-14 22:31:00,37.5,36.5,30.22,North,5,0.0,1.0,96,0.06,,,1.49,VWS V14.01,2013-01-15 03:31:00,
2013-01-14 22:36:00,37.3,36.3,30.21,NE,34,0.0,1.0,96,0.06,,,1.49,VWS V14.01,2013-01-15 03:36:00,
2013-01-14 22:41:00,37.0,36.0,30.21,SW,233,1.0,1.0,96,0.06,,,1.49,VWS V14.01,2013-01-15 03:41:00,
2013-01-14 22:46:00,37.0,36.0,30.21,NNW,329,0.0,1.0,96,0.05,,,1.49,VWS V14.01,2013-01-15 03:46:00,
2013-01-14 22:51:00,37.0,36.0,30.19,NNW,331,4.0,4.0,96,0.04,,,1.49,VWS V14.01,2013-01-15 03:51:00,
2013-01-14 22:57:00,37.0,36.0,30.19,North,351,0.0,1.0,96,0.03,,,1.49,VWS V14.01,2013-01-15 03:57:00,
2013-01-14 23:02:00,37.0,36.0,30.19,North,351,0.0,1.0,96,0.03,,,1.50,VWS V14.01,2013-01-15 04:02:00,
2013-01-14 23:07:00,37.2,36.2,30.19,North,351,0.0,1.0,96,0.02,,,1.50,VWS V14.01,2013-01-15 04:07:00,
2013-01-14 23:12:00,37.2,36.2,30.19,North,5,4.0,4.0,96,0.03,,,1.51,VWS V14.01,2013-01-15 04:12:00,
2013-01-14 23:17:00,37.2,36.2,30.19,North,5,2.0,2.0,96,0.04,,,1.52,VWS V14.01,2013-01-15 04:17:00,
2013-01-14 23:22:00,37.2,36.2,30.17,North,5,0.0,1.0,96,0.04,,,1.52,VWS V14.01,2013-01-15 04:22:00,
2013-01-14 23:27:00,37.2,36.2,30.17,North,5,0.0,1.0,96,0.05,,,1.53,VWS V14.01,2013-01-15 04:27:00,
2013-01-14 23:32:00,37.2,36.2,30.17,North,5,2.0,2.0,96,0.04,,,1.53,VWS V14.01,2013-01-15 04:32:00,
2013-01-14 23:37:00,37.2,36.2,30.17,North,5,0.0,1.0,96,0.05,,,1.54,VWS V14.01,2013-01-15 04:37:00,
2013-01-14 23:42:00,37.3,36.3,30.17,North,5,0.0,1.0,96,0.05,,,1.54,VWS V14.01,2013-01-15 04:42:00,
2013-01-14 23:47:00,37.3,36.3,30.16,ENE,68,0.0,1.0,96,0.05,,,1.54,VWS V14.01,2013-01-15 04:47:00,
2013-01-14 23:52:00,37.6,36.6,30.16,ENE,68,0.0,1.0,96,0.05,,,1.54,VWS V14.01,2013-01-15 04:52:00,
2013-01-14 23:57:00,37.6,36.6,30.16,ESE,107,0.0,1.0,96,0.06,,,1.55,VWS V14.01,2013-01-15 04:57:00,